Main page
METAR-TAF:

METAR-TAF

Airports :

Hwange National Park Airport

Hwange National Park, Zimbabwe

latitude: 18-38S, longitude: 027-00E, elevation: 1079 m

Current weather observation

The report was made 8 hours and 44 minutes ago, at 15:00 UTC
Wind 6 kt from the East
Temperature 24°C
Humidity 27%
Pressure 1024 hPa
Visibility 10 km or more
no clouds below 1500 m and no cumulonimbus

METAR: FVWN 231500Z 09006KT CAVOK 24/04 Q1024 NOSIG

Time: 01:44 (23:44 UTC)


TAF: missing

Weather observations and forecasts of more than 4000 airports (METAR and TAF reports).

The available stations are represented by yellow and red dots on the map.

Hover mouse over dot to see the name of the station.

Then click to see weather observations and forecasts.

To change the map : click on the green buttons with a black cross to zoom in, on the green button with a dash to zoom out, or on the green arrows for adjacent maps.


METAR-TAF: